Time;durP1;ratioP1;P1;durP2;ratioP2;P2;SDS_P1;SDS_P2;PMS_P1;PMS_P2;Temp;Humidity;BMP_temperature;BMP_pressure;BME280_temperature;BME280_humidity;BME280_pressure;Samples;Min_cycle;Max_cycle;Signal;HPM_P1;HPM_P2
2023/09/02 00:00:42;;;;;;;1.50;1.30;;;25.20;50.30;;;;;;5148326;27;45417;-75
2023/09/02 00:03:09;;;;;;;2.03;1.63;;;25.20;50.30;;;;;;5148675;27;45618;-77
2023/09/02 00:05:37;;;;;;;1.13;1.02;;;25.20;50.30;;;;;;5142449;27;45402;-75
2023/09/02 00:08:05;;;;;;;1.42;1.25;;;25.20;50.90;;;;;;5148649;27;45535;-78
2023/09/02 00:10:31;;;;;;;3.13;1.35;;;25.20;50.30;;;;;;5148611;27;45460;-76
2023/09/02 00:12:58;;;;;;;1.83;1.10;;;25.10;50.90;;;;;;5148691;27;45655;-76
2023/09/02 00:15:25;;;;;;;2.63;1.30;;;25.10;50.30;;;;;;5149470;27;45263;-77
2023/09/02 00:17:52;;;;;;;1.73;1.20;;;25.10;50.30;;;;;;5143302;27;45310;-77
2023/09/02 00:20:20;;;;;;;3.22;1.30;;;25.10;50.20;;;;;;5149577;27;45387;-76
2023/09/02 00:22:49;;;;;;;1.38;1.15;;;25.10;50.30;;;;;;5149278;27;46931;-75
2023/09/02 00:25:15;;;;;;;2.38;1.67;;;25.10;50.40;;;;;;5146634;27;45403;-77
2023/09/02 00:27:42;;;;;;;2.67;1.40;;;25.10;50.30;;;;;;5148973;27;45310;-76
2023/09/02 00:30:10;;;;;;;2.25;1.50;;;25.00;50.30;;;;;;5148825;27;45598;-77
2023/09/02 00:32:37;;;;;;;5.28;1.30;;;25.00;50.30;;;;;;5145597;27;45608;-75
2023/09/02 00:35:04;;;;;;;2.60;1.50;;;25.00;50.50;;;;;;5148092;27;45380;-75
2023/09/02 00:37:31;;;;;;;1.80;1.30;;;25.00;50.40;;;;;;5142389;27;45389;-75
2023/09/02 00:39:59;;;;;;;2.20;1.17;;;25.00;50.50;;;;;;5141767;27;45257;-75
2023/09/02 00:42:26;;;;;;;2.15;1.38;;;24.90;50.60;;;;;;5144156;27;47313;-74
2023/09/02 00:44:53;;;;;;;2.08;1.42;;;24.90;50.60;;;;;;5135238;27;45211;-74
2023/09/02 00:47:20;;;;;;;1.20;1.10;;;24.90;50.70;;;;;;5131625;27;45318;-75
2023/09/02 00:49:47;;;;;;;3.95;1.40;;;24.90;50.70;;;;;;5148785;27;45416;-74
2023/09/02 00:52:13;;;;;;;2.60;1.50;;;24.80;50.70;;;;;;5148220;27;46433;-74
2023/09/02 00:54:40;;;;;;;3.28;1.50;;;24.80;50.80;;;;;;5146350;27;45406;-74
2023/09/02 00:57:09;;;;;;;1.38;1.13;;;24.80;50.70;;;;;;5147080;27;45388;-75
2023/09/02 00:59:35;;;;;;;2.03;1.20;;;24.80;50.80;;;;;;5148359;27;45290;-74
2023/09/02 01:02:04;;;;;;;1.58;1.20;;;24.70;50.70;;;;;;5148154;27;45143;-74
2023/09/02 01:04:31;;;;;;;3.97;1.75;;;24.70;50.70;;;;;;5147972;27;45411;-74
2023/09/02 01:06:58;;;;;;;3.30;1.45;;;24.70;50.80;;;;;;5148054;27;45373;-74
2023/09/02 01:09:25;;;;;;;3.53;1.80;;;24.70;50.80;;;;;;5148377;27;45247;-75
2023/09/02 01:11:52;;;;;;;2.10;1.70;;;24.70;50.90;;;;;;5148793;27;46702;-75
2023/09/02 01:14:20;;;;;;;1.85;1.35;;;24.60;50.90;;;;;;5151616;27;45406;-75
2023/09/02 01:16:47;;;;;;;2.92;1.90;;;24.60;51.00;;;;;;5151741;27;45466;-74
2023/09/02 01:19:16;;;;;;;1.58;1.13;;;24.60;51.00;;;;;;5135033;27;45312;-74
2023/09/02 01:22:05;;;;;;;4.20;1.75;;;24.60;51.10;;;;;;5151343;27;46702;-74
2023/09/02 01:24:52;;;;;;;2.00;1.50;;;24.50;51.10;;;;;;5136589;27;45394;-74
2023/09/02 01:27:23;;;;;;;3.25;1.40;;;24.50;51.10;;;;;;5139923;27;45333;-74
2023/09/02 01:29:57;;;;;;;2.30;1.70;;;24.50;51.20;;;;;;5151667;27;45374;-74
2023/09/02 01:32:25;;;;;;;2.47;1.80;;;24.50;51.20;;;;;;5139791;27;46733;-75
2023/09/02 01:34:52;;;;;;;3.83;1.70;;;24.50;51.30;;;;;;5145460;27;45421;-74
2023/09/02 01:37:19;;;;;;;4.60;1.98;;;24.50;51.30;;;;;;5151320;27;45336;-75
2023/09/02 01:39:46;;;;;;;4.72;2.55;;;24.40;51.20;;;;;;5151916;27;45300;-75
2023/09/02 01:42:13;;;;;;;10.70;3.33;;;24.40;51.30;;;;;;5151119;27;46360;-74
2023/09/02 01:44:41;;;;;;;6.13;3.85;;;24.40;51.40;;;;;;5151219;27;45276;-74
2023/09/02 01:47:08;;;;;;;6.60;3.58;;;24.40;51.40;;;;;;5151029;27;45386;-74
2023/09/02 01:49:35;;;;;;;7.05;3.20;;;24.30;51.40;;;;;;5146826;27;45533;-73
2023/09/02 01:52:02;;;;;;;7.80;3.35;;;24.30;51.40;;;;;;5140837;27;46259;-74
2023/09/02 01:54:29;;;;;;;8.05;3.30;;;24.30;51.40;;;;;;5150558;27;45280;-72
2023/09/02 01:56:55;;;;;;;6.43;3.28;;;24.30;51.40;;;;;;5150046;27;45464;-74
2023/09/02 01:59:21;;;;;;;8.85;3.47;;;24.30;51.50;;;;;;5151675;27;45380;-74
2023/09/02 02:01:50;;;;;;;5.88;3.20;;;24.20;51.50;;;;;;5150897;27;45483;-74
2023/09/02 02:04:19;;;;;;;6.32;3.28;;;24.20;51.50;;;;;;5150946;27;45334;-74
2023/09/02 02:06:46;;;;;;;6.88;3.17;;;24.20;51.60;;;;;;5139332;27;45335;-74
2023/09/02 02:09:14;;;;;;;11.45;3.10;;;24.20;51.60;;;;;;5133759;27;45370;-75
2023/09/02 02:11:40;;;;;;;5.78;2.63;;;24.20;51.60;;;;;;5142640;27;46402;-75
2023/09/02 02:14:07;;;;;;;5.63;2.97;;;24.20;51.70;;;;;;5141175;27;45315;-75
2023/09/02 02:16:34;;;;;;;4.07;2.40;;;24.10;51.60;;;;;;5135285;27;45346;-75
2023/09/02 02:19:03;;;;;;;5.47;2.90;;;24.10;51.70;;;;;;5147136;27;45405;-75
2023/09/02 02:21:31;;;;;;;8.13;2.90;;;24.10;51.80;;;;;;5129830;27;46307;-73
2023/09/02 02:23:58;;;;;;;5.25;2.67;;;24.10;51.80;;;;;;5138506;27;45291;-75
2023/09/02 02:26:25;;;;;;;6.78;2.83;;;24.10;51.80;;;;;;5136711;27;45336;-75
2023/09/02 02:28:51;;;;;;;5.80;2.70;;;24.10;51.80;;;;;;5147182;27;45637;-75
2023/09/02 02:31:18;;;;;;;4.40;2.63;;;24.00;51.80;;;;;;5134090;27;45351;-76
2023/09/02 02:33:45;;;;;;;6.32;2.85;;;24.00;51.80;;;;;;5142168;27;45350;-73
2023/09/02 02:36:13;;;;;;;5.40;2.58;;;24.00;51.80;;;;;;5141707;27;45410;-74
2023/09/02 02:38:40;;;;;;;6.93;2.55;;;24.00;51.80;;;;;;5133890;27;45343;-74
2023/09/02 02:41:07;;;;;;;5.03;2.85;;;24.00;51.80;;;;;;5146260;27;45532;-74
2023/09/02 02:43:34;;;;;;;5.55;2.45;;;23.90;51.80;;;;;;5145861;27;45315;-74
2023/09/02 02:46:00;;;;;;;5.22;2.25;;;23.90;51.80;;;;;;5146114;27;44713;-75
2023/09/02 02:48:29;;;;;;;4.85;2.40;;;23.90;51.90;;;;;;5150559;27;45431;-74
2023/09/02 02:50:57;;;;;;;3.90;2.20;;;23.90;51.90;;;;;;5150128;27;46556;-74
2023/09/02 02:53:25;;;;;;;5.57;2.10;;;23.90;51.90;;;;;;5150100;27;45361;-74
2023/09/02 02:55:52;;;;;;;5.25;2.30;;;23.80;52.00;;;;;;5150192;27;45264;-74
2023/09/02 02:58:18;;;;;;;3.15;2.05;;;23.80;52.00;;;;;;5150465;27;45330;-74
2023/09/02 03:00:57;;;;;;;3.17;2.05;;;23.80;52.00;;;;;;5150378;27;45242;-74
2023/09/02 03:03:23;;;;;;;3.90;2.45;;;23.80;52.00;;;;;;5149367;27;45369;-74
2023/09/02 03:05:50;;;;;;;4.25;2.22;;;23.80;52.00;;;;;;5149987;27;45365;-74
2023/09/02 03:08:17;;;;;;;5.30;2.42;;;23.80;52.00;;;;;;5150546;27;45244;-74
2023/09/02 03:10:45;;;;;;;4.60;2.15;;;23.70;52.00;;;;;;5149608;27;46401;-75
2023/09/02 03:13:12;;;;;;;3.33;2.03;;;23.70;52.00;;;;;;5132378;27;45373;-74
2023/09/02 03:15:39;;;;;;;3.28;1.90;;;23.70;52.00;;;;;;5142329;27;45430;-74
2023/09/02 03:18:06;;;;;;;3.85;1.95;;;23.70;52.00;;;;;;5140292;27;45287;-73
2023/09/02 03:20:33;;;;;;;3.13;1.80;;;23.70;52.10;;;;;;5133392;27;45266;-75
2023/09/02 03:23:00;;;;;;;4.65;2.03;;;23.70;52.00;;;;;;5145877;27;45338;-74
2023/09/02 03:25:30;;;;;;;3.15;1.77;;;23.60;52.10;;;;;;5134543;27;45378;-75
2023/09/02 03:27:58;;;;;;;2.40;1.88;;;23.60;52.70;;;;;;5139469;27;45170;-74
2023/09/02 03:30:28;;;;;;;3.65;2.15;;;23.60;52.10;;;;;;5142697;27;45252;-75
2023/09/02 03:32:55;;;;;;;4.28;1.80;;;23.60;52.20;;;;;;5131819;27;45345;-74
2023/09/02 03:35:22;;;;;;;3.45;2.05;;;23.60;52.20;;;;;;5143943;27;45334;-74
2023/09/02 03:37:49;;;;;;;4.78;2.25;;;23.60;52.80;;;;;;5137404;27;45456;-74
2023/09/02 03:40:16;;;;;;;5.95;2.47;;;23.50;52.20;;;;;;5133696;27;45363;-74
2023/09/02 03:42:43;;;;;;;5.10;2.38;;;23.50;52.20;;;;;;5138310;27;45326;-74
2023/09/02 03:45:11;;;;;;;4.57;2.50;;;23.50;52.20;;;;;;5149248;27;45328;-74
2023/09/02 03:47:38;;;;;;;4.05;2.45;;;23.50;52.30;;;;;;5148938;27;45316;-74
2023/09/02 03:50:06;;;;;;;5.15;2.70;;;23.50;52.30;;;;;;5146357;27;45243;-74
2023/09/02 03:52:32;;;;;;;6.82;3.15;;;23.50;52.40;;;;;;5149069;27;45336;-74
2023/09/02 03:54:59;;;;;;;6.18;3.00;;;23.50;52.30;;;;;;5148849;27;45268;-75
2023/09/02 03:57:26;;;;;;;8.90;2.80;;;23.50;52.40;;;;;;5148874;27;45256;-74
2023/09/02 03:59:53;;;;;;;6.15;2.70;;;23.40;52.40;;;;;;5144825;27;45479;-74
2023/09/02 04:02:22;;;;;;;5.32;3.10;;;23.40;52.40;;;;;;5142577;27;45764;-74
2023/09/02 04:04:48;;;;;;;6.15;3.47;;;23.40;52.40;;;;;;5150503;27;45364;-73
2023/09/02 04:07:15;;;;;;;7.85;3.17;;;23.40;52.50;;;;;;5144672;27;45346;-72
2023/09/02 04:09:42;;;;;;;7.10;3.00;;;23.40;52.40;;;;;;5148398;27;46675;-72
2023/09/02 04:12:09;;;;;;;5.63;3.17;;;23.30;52.40;;;;;;5148642;27;45134;-72
2023/09/02 04:14:36;;;;;;;4.65;2.70;;;23.30;52.40;;;;;;5148771;27;45320;-74
2023/09/02 04:17:03;;;;;;;7.57;3.22;;;23.30;52.50;;;;;;5148605;27;45407;-74
2023/09/02 04:19:32;;;;;;;4.80;3.33;;;23.30;52.50;;;;;;5148439;27;45327;-73
2023/09/02 04:21:59;;;;;;;7.10;2.88;;;23.30;52.60;;;;;;5148451;27;45351;-73
2023/09/02 04:24:28;;;;;;;7.63;2.70;;;23.30;53.10;;;;;;5148776;27;45264;-73
2023/09/02 04:26:55;;;;;;;5.95;2.83;;;23.30;52.60;;;;;;5148935;27;45486;-73
2023/09/02 04:29:22;;;;;;;3.70;2.42;;;23.30;52.60;;;;;;5131155;27;46362;-76
2023/09/02 04:31:49;;;;;;;5.15;2.55;;;23.30;52.60;;;;;;5140491;27;45338;-76
2023/09/02 04:34:16;;;;;;;6.60;2.72;;;23.20;52.50;;;;;;5139185;27;45294;-76
2023/09/02 04:36:44;;;;;;;7.05;2.58;;;23.30;52.40;;;;;;5133231;27;45361;-76
2023/09/02 04:39:11;;;;;;;4.82;2.70;;;23.20;52.40;;;;;;5144675;27;46391;-77
2023/09/02 04:41:38;;;;;;;4.57;2.53;;;23.20;52.40;;;;;;5133645;27;45350;-76
2023/09/02 04:44:05;;;;;;;5.00;2.45;;;23.20;52.40;;;;;;5138686;27;45367;-76
2023/09/02 04:46:32;;;;;;;4.70;2.25;;;23.20;52.40;;;;;;5141634;27;45396;-74
2023/09/02 04:48:58;;;;;;;5.70;2.45;;;23.20;52.40;;;;;;5134707;27;45313;-74
2023/09/02 04:51:25;;;;;;;5.28;2.30;;;23.20;52.50;;;;;;5147001;27;45376;-75
2023/09/02 04:53:53;;;;;;;5.70;2.40;;;23.20;52.40;;;;;;5140570;27;45450;-75
2023/09/02 04:56:20;;;;;;;4.53;2.53;;;23.20;52.40;;;;;;5149670;27;45363;-76
2023/09/02 04:58:47;;;;;;;5.03;2.38;;;23.10;52.40;;;;;;5150787;27;46738;-76
2023/09/02 05:01:15;;;;;;;4.53;2.15;;;23.10;52.40;;;;;;5140543;27;45216;-75
2023/09/02 05:03:42;;;;;;;4.00;2.35;;;23.10;52.40;;;;;;5151916;27;45314;-76
2023/09/02 05:06:10;;;;;;;4.70;2.65;;;23.10;52.40;;;;;;5152262;27;45306;-75
2023/09/02 05:08:37;;;;;;;4.70;2.03;;;23.10;52.40;;;;;;5140700;27;46275;-76
2023/09/02 05:11:07;;;;;;;3.13;2.17;;;23.10;52.40;;;;;;5151163;27;45236;-76
2023/09/02 05:13:33;;;;;;;3.70;2.20;;;23.10;52.40;;;;;;5151687;27;45326;-76
2023/09/02 05:16:00;;;;;;;3.53;2.38;;;23.10;52.50;;;;;;5151585;27;45504;-75
2023/09/02 05:18:27;;;;;;;3.47;2.10;;;23.10;52.40;;;;;;5150421;27;46467;-76
2023/09/02 05:20:57;;;;;;;4.07;2.10;;;23.00;52.40;;;;;;5151561;27;45311;-75
2023/09/02 05:23:24;;;;;;;6.25;2.10;;;23.00;53.00;;;;;;5151662;27;45266;-76
2023/09/02 05:25:55;;;;;;;5.47;2.25;;;23.00;52.40;;;;;;5151827;27;45315;-75
2023/09/02 05:28:23;;;;;;;3.78;1.95;;;23.00;52.40;;;;;;5151158;27;48344;-75
2023/09/02 05:30:50;;;;;;;3.78;1.90;;;23.00;52.40;;;;;;5151607;27;45272;-75
2023/09/02 05:33:17;;;;;;;3.35;2.00;;;23.00;52.50;;;;;;5149273;27;45527;-76
2023/09/02 05:35:44;;;;;;;5.25;2.20;;;23.00;52.50;;;;;;5142642;27;45376;-76
2023/09/02 05:38:11;;;;;;;3.80;2.03;;;23.00;52.50;;;;;;5149771;27;46380;-76
2023/09/02 05:40:40;;;;;;;7.75;2.30;;;23.00;52.50;;;;;;5145808;27;45519;-75
2023/09/02 05:43:07;;;;;;;2.88;1.60;;;23.00;52.40;;;;;;5150020;27;45261;-75
2023/09/02 05:45:35;;;;;;;2.63;1.70;;;23.00;52.50;;;;;;5151203;27;45312;-76
2023/09/02 05:48:02;;;;;;;3.50;1.92;;;23.00;52.50;;;;;;5150760;27;46403;-75
2023/09/02 05:50:29;;;;;;;2.80;1.67;;;23.00;52.40;;;;;;5145735;27;45455;-76
2023/09/02 05:52:56;;;;;;;3.90;1.90;;;23.00;52.40;;;;;;5151047;27;45336;-75
2023/09/02 05:55:23;;;;;;;3.45;1.92;;;23.00;52.40;;;;;;5150669;27;45364;-75
2023/09/02 05:57:50;;;;;;;3.65;2.20;;;23.00;52.40;;;;;;5142206;27;45475;-76
2023/09/02 06:00:17;;;;;;;2.45;1.65;;;23.00;52.40;;;;;;5138293;27;45424;-75
2023/09/02 06:02:45;;;;;;;2.33;1.90;;;23.00;52.50;;;;;;5141809;27;45331;-76
2023/09/02 06:05:12;;;;;;;3.28;1.52;;;23.00;52.40;;;;;;5146638;27;45509;-76
2023/09/02 06:07:39;;;;;;;4.32;1.77;;;23.00;52.40;;;;;;5144844;27;45477;-77
2023/09/02 06:10:06;;;;;;;3.05;1.42;;;23.00;52.60;;;;;;5147810;27;45518;-76
2023/09/02 06:12:33;;;;;;;2.17;1.40;;;23.00;52.90;;;;;;5150814;27;45344;-77
2023/09/02 06:15:00;;;;;;;1.48;1.35;;;23.00;53.10;;;;;;5150921;27;45445;-76
2023/09/02 06:17:30;;;;;;;3.20;1.63;;;23.00;53.20;;;;;;5150318;27;45330;-76
2023/09/02 06:19:59;;;;;;;1.75;1.38;;;23.00;53.40;;;;;;5150800;27;45311;-76
2023/09/02 06:22:26;;;;;;;2.38;1.50;;;23.00;53.50;;;;;;5150526;27;45294;-75
2023/09/02 06:24:54;;;;;;;2.13;1.25;;;23.00;53.60;;;;;;5150185;27;45522;-75
2023/09/02 06:27:21;;;;;;;2.28;1.30;;;22.90;53.70;;;;;;5150058;27;45344;-76
2023/09/02 06:29:48;;;;;;;1.52;1.20;;;23.00;53.80;;;;;;5150324;27;45388;-76
2023/09/02 06:32:14;;;;;;;1.42;1.30;;;23.00;53.90;;;;;;5150552;27;45323;-74
2023/09/02 06:34:41;;;;;;;1.58;1.02;;;23.00;53.90;;;;;;5150508;27;45426;-76
2023/09/02 06:37:09;;;;;;;1.30;1.20;;;23.00;54.00;;;;;;5148110;27;45434;-76
2023/09/02 06:39:36;;;;;;;1.65;1.25;;;22.90;54.00;;;;;;5148306;27;45492;-74
2023/09/02 06:42:04;;;;;;;1.73;1.23;;;23.00;54.10;;;;;;5145302;27;45311;-74
2023/09/02 06:44:30;;;;;;;1.90;1.15;;;23.00;53.80;;;;;;5150814;27;45493;-74
2023/09/02 06:46:57;;;;;;;1.60;1.25;;;23.00;53.70;;;;;;5149901;27;45284;-75
2023/09/02 06:49:24;;;;;;;1.65;1.10;;;23.00;53.70;;;;;;5149908;27;45431;-75
2023/09/02 06:51:51;;;;;;;1.30;1.02;;;23.00;53.60;;;;;;5150129;27;45498;-75
2023/09/02 06:54:19;;;;;;;2.50;1.42;;;23.00;53.50;;;;;;5150246;27;45493;-74
2023/09/02 06:56:46;;;;;;;1.45;1.30;;;23.00;53.50;;;;;;5149224;27;46412;-75
2023/09/02 06:59:13;;;;;;;2.70;1.10;;;23.00;54.00;;;;;;5150000;27;45250;-75
2023/09/02 07:01:40;;;;;;;3.88;1.40;;;23.10;53.50;;;;;;5150128;27;45392;-74
2023/09/02 07:04:07;;;;;;;2.72;1.17;;;23.10;53.40;;;;;;5150119;27;45394;-75
2023/09/02 07:06:34;;;;;;;2.17;1.20;;;23.10;53.40;;;;;;5149716;27;46445;-74
2023/09/02 07:09:02;;;;;;;2.55;1.08;;;23.10;53.40;;;;;;5148638;27;45252;-74
2023/09/02 07:11:30;;;;;;;1.73;1.35;;;23.10;53.30;;;;;;5149936;27;45289;-74
2023/09/02 07:13:57;;;;;;;1.73;1.08;;;23.10;53.30;;;;;;5149936;27;45446;-75
2023/09/02 07:16:24;;;;;;;1.20;1.10;;;23.10;53.30;;;;;;5149338;27;48480;-76
2023/09/02 07:18:51;;;;;;;1.42;1.00;;;23.10;53.20;;;;;;5149776;27;45299;-75
2023/09/02 07:21:22;;;;;;;1.25;1.15;;;23.10;53.20;;;;;;5149951;27;45591;-75
2023/09/02 07:23:49;;;;;;;1.63;1.25;;;23.20;53.10;;;;;;5149910;27;45307;-76
2023/09/02 07:26:16;;;;;;;2.53;1.20;;;23.20;53.10;;;;;;5149380;27;48125;-75
2023/09/02 07:28:44;;;;;;;1.67;1.00;;;23.20;53.10;;;;;;5149329;27;45428;-75
2023/09/02 07:31:11;;;;;;;0.88;0.88;;;23.20;53.00;;;;;;5149546;27;45417;-75
2023/09/02 07:33:38;;;;;;;1.17;1.08;;;23.20;53.00;;;;;;5149629;27;45393;-75
2023/09/02 07:36:07;;;;;;;1.33;1.05;;;23.20;52.90;;;;;;5149437;27;46379;-74
2023/09/02 07:38:34;;;;;;;2.30;1.05;;;23.30;53.00;;;;;;5149514;27;45332;-75
2023/09/02 07:41:01;;;;;;;1.27;1.02;;;23.30;52.90;;;;;;5150896;27;45275;-75
2023/09/02 07:43:28;;;;;;;1.20;1.10;;;23.20;52.80;;;;;;5151019;27;45402;-74
2023/09/02 07:45:56;;;;;;;1.10;1.00;;;23.30;52.90;;;;;;5149556;27;45269;-74
2023/09/02 07:48:23;;;;;;;1.73;1.30;;;23.30;52.90;;;;;;5149243;27;45488;-74
2023/09/02 07:50:50;;;;;;;1.85;1.20;;;23.30;52.80;;;;;;5149868;27;45267;-74
2023/09/02 07:53:17;;;;;;;1.52;1.30;;;23.30;52.80;;;;;;5149567;27;45293;-74
2023/09/02 07:55:44;;;;;;;1.23;1.10;;;23.30;53.40;;;;;;5148214;27;45280;-74
2023/09/02 07:58:11;;;;;;;1.40;1.23;;;23.40;52.80;;;;;;5149353;27;45280;-75
2023/09/02 08:00:39;;;;;;;2.90;1.30;;;23.40;52.80;;;;;;5149678;27;45264;-74
2023/09/02 08:03:07;;;;;;;1.42;1.00;;;23.40;52.70;;;;;;5149443;27;45391;-74
2023/09/02 08:05:37;;;;;;;2.00;1.30;;;23.40;52.70;;;;;;5148970;27;46230;-74
2023/09/02 08:08:05;;;;;;;1.10;1.00;;;23.40;52.70;;;;;;5149416;27;45375;-74
2023/09/02 08:10:31;;;;;;;1.10;0.98;;;23.50;52.70;;;;;;5149617;27;45350;-74
2023/09/02 08:12:58;;;;;;;1.17;1.00;;;23.50;52.60;;;;;;5150227;27;45354;-74
2023/09/02 08:15:25;;;;;;;1.25;1.15;;;23.50;52.60;;;;;;5149003;27;45409;-75
2023/09/02 08:17:52;;;;;;;1.27;1.00;;;23.50;52.60;;;;;;5149485;27;45326;-74
2023/09/02 08:20:21;;;;;;;2.00;1.10;;;23.50;52.60;;;;;;5149431;27;45378;-74
2023/09/02 08:22:47;;;;;;;2.67;0.98;;;23.50;52.60;;;;;;5149474;27;45388;-75
2023/09/02 08:25:14;;;;;;;1.00;0.90;;;23.60;52.60;;;;;;5149136;27;47288;-75
2023/09/02 08:27:44;;;;;;;1.10;1.00;;;23.60;52.50;;;;;;5148866;27;45251;-74
2023/09/02 08:30:12;;;;;;;1.00;0.88;;;23.60;52.40;;;;;;5148971;27;45306;-75
2023/09/02 08:32:39;;;;;;;1.55;1.00;;;23.60;52.30;;;;;;5146939;27;45439;-75
2023/09/02 08:35:07;;;;;;;0.90;0.80;;;23.70;52.30;;;;;;5146193;27;46608;-75
2023/09/02 08:37:37;;;;;;;1.48;0.95;;;23.70;52.30;;;;;;5148760;27;45714;-75
2023/09/02 08:40:04;;;;;;;1.13;1.02;;;23.70;52.30;;;;;;5149413;27;45244;-75
2023/09/02 08:42:32;;;;;;;2.28;1.20;;;23.70;52.30;;;;;;5148523;27;45249;-75
2023/09/02 08:44:59;;;;;;;1.10;1.00;;;23.70;52.20;;;;;;5148583;27;46408;-75
2023/09/02 08:47:27;;;;;;;2.42;1.13;;;23.80;52.30;;;;;;5148413;27;45358;-75
2023/09/02 08:49:53;;;;;;;1.02;0.90;;;23.80;52.20;;;;;;5148586;27;45161;-75
2023/09/02 08:52:20;;;;;;;1.25;1.15;;;23.80;52.10;;;;;;5148592;27;45249;-75
2023/09/02 08:54:48;;;;;;;1.30;1.20;;;23.80;52.00;;;;;;5148151;27;46267;-74
2023/09/02 08:57:17;;;;;;;1.13;1.02;;;23.90;52.10;;;;;;5147780;27;45342;-75
2023/09/02 08:59:44;;;;;;;1.42;1.10;;;23.90;52.10;;;;;;5148483;27;45441;-75
2023/09/02 09:02:11;;;;;;;1.08;0.98;;;23.90;52.00;;;;;;5148496;27;45378;-74
2023/09/02 09:04:38;;;;;;;1.10;0.90;;;24.00;52.10;;;;;;5148279;27;45207;-75
2023/09/02 09:07:05;;;;;;;2.38;1.35;;;24.00;52.60;;;;;;5147970;27;45284;-75
2023/09/02 09:09:33;;;;;;;2.15;1.27;;;24.00;52.00;;;;;;5148276;27;45324;-75
2023/09/02 09:12:01;;;;;;;1.42;1.20;;;24.10;52.00;;;;;;5148516;27;45320;-75
2023/09/02 09:14:29;;;;;;;1.67;1.00;;;24.10;52.00;;;;;;5148124;27;45291;-73
2023/09/02 09:16:56;;;;;;;1.50;1.00;;;24.10;52.00;;;;;;5147147;27;45319;-75
2023/09/02 09:19:24;;;;;;;1.48;0.90;;;24.10;52.00;;;;;;5148661;27;45402;-75
2023/09/02 09:21:50;;;;;;;0.80;0.80;;;24.20;51.90;;;;;;5148482;27;45303;-75
2023/09/02 09:24:17;;;;;;;1.08;0.98;;;24.20;52.00;;;;;;5148072;27;46375;-75
2023/09/02 09:26:45;;;;;;;1.02;0.90;;;24.20;51.90;;;;;;5145319;27;45322;-75
2023/09/02 09:29:14;;;;;;;1.38;0.90;;;24.30;51.90;;;;;;5147976;27;45391;-75
2023/09/02 09:31:40;;;;;;;1.02;0.95;;;24.30;51.80;;;;;;5148435;27;45314;-75
2023/09/02 09:34:07;;;;;;;1.05;0.90;;;24.30;51.80;;;;;;5150515;27;45487;-75
2023/09/02 09:36:34;;;;;;;0.90;0.85;;;24.40;51.80;;;;;;5151601;27;45345;-76
2023/09/02 09:39:02;;;;;;;1.05;0.95;;;24.40;51.80;;;;;;5151592;27;45357;-75
2023/09/02 09:41:28;;;;;;;1.00;0.90;;;24.40;51.80;;;;;;5151624;27;45376;-74
2023/09/02 09:44:06;;;;;;;0.77;0.77;;;24.40;51.80;;;;;;5151220;27;46375;-74
2023/09/02 09:46:35;;;;;;;1.83;0.98;;;24.50;51.80;;;;;;5151287;27;45352;-75
2023/09/02 09:49:02;;;;;;;0.90;0.90;;;24.50;52.00;;;;;;5151338;27;45382;-73
2023/09/02 09:51:29;;;;;;;4.25;1.17;;;24.50;52.30;;;;;;5147666;27;45414;-74
2023/09/02 09:53:56;;;;;;;1.02;0.98;;;24.60;53.50;;;;;;5150694;27;45397;-71
2023/09/02 09:56:24;;;;;;;2.78;1.23;;;24.70;53.90;;;;;;5144958;27;45461;-74
2023/09/02 09:58:51;;;;;;;1.95;1.10;;;24.70;54.80;;;;;;5141270;27;45402;-74
2023/09/02 10:01:22;;;;;;;3.75;1.40;;;24.70;55.40;;;;;;5146319;27;45413;-75
2023/09/02 10:03:51;;;;;;;26.00;22.98;;;24.80;55.40;;;;;;5131081;27;47429;-75
2023/09/02 10:06:18;;;;;;;56.05;49.72;;;24.90;55.30;;;;;;5146964;27;45503;-75
2023/09/02 10:08:52;;;;;;;103.38;90.18;;;25.00;55.10;;;;;;5148353;27;45391;-72
2023/09/02 10:11:21;;;;;;;117.78;100.32;;;25.10;55.50;;;;;;5145278;27;45596;-74
2023/09/02 10:13:49;;;;;;;105.22;90.28;;;25.20;55.20;;;;;;5137479;27;45441;-72
2023/09/02 10:16:17;;;;;;;47.00;40.38;;;25.30;55.40;;;;;;5131941;27;45316;-74
2023/09/02 10:18:44;;;;;;;22.75;18.85;;;25.40;53.80;;;;;;5144278;27;45417;-74
2023/09/02 10:21:12;;;;;;;25.63;17.13;;;25.40;53.20;;;;;;5140939;27;45490;-73
2023/09/02 10:23:39;;;;;;;18.85;15.27;;;25.40;53.00;;;;;;5131837;27;47308;-74
2023/09/02 10:26:07;;;;;;;9.07;6.10;;;25.50;52.70;;;;;;5148889;27;45492;-74
2023/09/02 10:28:38;;;;;;;5.47;4.10;;;25.50;52.50;;;;;;5133385;27;45343;-75
2023/09/02 10:31:05;;;;;;;3.35;3.05;;;25.60;52.60;;;;;;5138973;27;45486;-73
2023/09/02 10:33:35;;;;;;;2.58;2.10;;;25.60;52.20;;;;;;5149002;27;45402;-72
2023/09/02 10:36:02;;;;;;;5.63;2.33;;;25.60;53.00;;;;;;5148829;27;45413;-73
2023/09/02 10:38:33;;;;;;;4.13;1.90;;;25.70;52.30;;;;;;5150744;27;45346;-76
2023/09/02 10:41:04;;;;;;;3.50;2.00;;;25.80;54.60;;;;;;5138729;27;46387;-73
2023/09/02 10:43:31;;;;;;;8.10;2.28;;;25.90;53.30;;;;;;5139254;27;47554;-74
2023/09/02 10:45:58;;;;;;;4.15;1.95;;;26.00;52.90;;;;;;5130441;27;45384;-72
2023/09/02 10:48:25;;;;;;;4.90;2.25;;;26.10;52.60;;;;;;5147145;27;45442;-75
2023/09/02 10:50:52;;;;;;;3.65;2.03;;;26.20;52.60;;;;;;5138047;27;45264;-76
2023/09/02 10:53:19;;;;;;;1.88;1.67;;;26.40;52.60;;;;;;5138021;27;45413;-76
2023/09/02 10:56:00;;;;;;;1.50;1.40;;;26.50;52.10;;;;;;5141437;27;45448;-73
2023/09/02 10:58:27;;;;;;;4.22;2.95;;;26.60;51.90;;;;;;5131469;27;45534;-73
2023/09/02 11:00:54;;;;;;;2.30;1.70;;;26.80;51.10;;;;;;5120306;27;45434;-72
2023/09/02 11:03:42;;;;;;;3.50;2.13;;;27.10;51.10;;;;;;5130873;27;45699;-75
2023/09/02 11:06:15;;;;;;;2.53;1.73;;;27.30;50.20;;;;;;5129736;27;45359;-72
2023/09/02 11:08:43;;;;;;;1.48;1.38;;;27.40;50.10;;;;;;5131730;27;45318;-70
2023/09/02 11:11:13;;;;;;;2.50;1.20;;;27.50;49.60;;;;;;5123006;27;45533;-72
2023/09/02 11:14:17;;;;;;;3.47;1.70;;;27.60;48.50;;;;;;5133294;27;46362;-72
2023/09/02 11:16:44;;;;;;;6.85;1.60;;;27.70;50.00;;;;;;5125471;27;45253;-73
2023/09/02 11:19:12;;;;;;;3.83;1.50;;;27.80;49.70;;;;;;5115471;27;45444;-74
2023/09/02 11:21:39;;;;;;;6.53;1.40;;;27.90;49.70;;;;;;5122196;27;45549;-71
2023/09/02 11:24:24;;;;;;;1.88;1.35;;;28.00;49.80;;;;;;5134041;27;45498;-77
2023/09/02 11:26:55;;;;;;;4.93;1.13;;;28.10;49.00;;;;;;5134304;27;45358;-72
2023/09/02 11:29:23;;;;;;;4.38;1.08;;;28.10;47.60;;;;;;5134497;27;45357;-74
2023/09/02 11:31:59;;;;;;;1.48;1.38;;;28.10;47.30;;;;;;5128052;27;45437;-74
2023/09/02 11:34:27;;;;;;;2.45;1.40;;;28.20;46.30;;;;;;5126077;27;45510;-76
2023/09/02 11:36:54;;;;;;;1.83;1.25;;;28.30;46.20;;;;;;5132198;27;45467;-74
2023/09/02 11:39:25;;;;;;;1.38;1.20;;;28.40;46.70;;;;;;5141230;27;45513;-76
2023/09/02 11:42:07;;;;;;;1.20;1.17;;;28.50;46.60;;;;;;5124946;27;45551;-75
2023/09/02 11:44:34;;;;;;;1.13;1.13;;;28.60;46.80;;;;;;5118151;27;45394;-74
2023/09/02 11:47:01;;;;;;;1.40;1.02;;;28.60;47.00;;;;;;5119447;27;45420;-74
2023/09/02 11:49:28;;;;;;;1.55;0.90;;;28.70;45.70;;;;;;5121147;27;45272;-75
2023/09/02 11:51:54;;;;;;;1.48;1.38;;;28.80;45.60;;;;;;5122965;27;45333;-75
2023/09/02 11:54:21;;;;;;;1.92;1.30;;;28.90;45.00;;;;;;5133124;27;47568;-76
2023/09/02 11:56:55;;;;;;;1.13;0.98;;;28.90;44.60;;;;;;5125029;27;45406;-76
2023/09/02 11:59:23;;;;;;;1.02;1.00;;;28.90;45.10;;;;;;5121829;27;45510;-76
2023/09/02 12:02:08;;;;;;;2.85;1.20;;;28.90;44.80;;;;;;5129007;27;45408;-72
2023/09/02 12:04:37;;;;;;;1.23;1.10;;;29.00;44.90;;;;;;5126911;27;46192;-72
2023/09/02 12:07:05;;;;;;;1.45;1.35;;;29.00;44.80;;;;;;5120891;27;45367;-75
2023/09/02 12:09:32;;;;;;;1.92;0.95;;;29.10;45.90;;;;;;5122084;27;45264;-75
2023/09/02 12:11:58;;;;;;;1.90;1.20;;;29.20;45.20;;;;;;5124429;27;45487;-73
2023/09/02 12:14:27;;;;;;;1.42;1.27;;;29.20;44.80;;;;;;5117240;27;45304;-75
2023/09/02 12:16:54;;;;;;;1.20;1.10;;;29.20;44.80;;;;;;5120127;27;45270;-74
2023/09/02 12:19:21;;;;;;;2.17;1.30;;;29.20;44.90;;;;;;5128340;27;45311;-75
2023/09/02 12:21:48;;;;;;;1.20;1.10;;;29.20;45.00;;;;;;5118311;27;45440;-72
2023/09/02 12:24:15;;;;;;;1.20;1.10;;;29.30;44.50;;;;;;5123371;27;46394;-77
2023/09/02 12:26:46;;;;;;;3.65;1.30;;;29.30;44.80;;;;;;5124341;27;45696;-74
2023/09/02 12:29:15;;;;;;;2.42;1.30;;;29.40;44.90;;;;;;5125865;27;45715;-76
2023/09/02 12:31:50;;;;;;;2.83;1.25;;;29.40;44.50;;;;;;5124394;27;45270;-76
2023/09/02 12:34:17;;;;;;;3.03;1.20;;;29.50;44.50;;;;;;5127198;27;45370;-75
2023/09/02 12:36:44;;;;;;;1.15;1.00;;;29.60;44.10;;;;;;5128940;27;45278;-75
2023/09/02 12:39:22;;;;;;;1.95;1.30;;;29.60;44.40;;;;;;5127915;27;45273;-75
2023/09/02 12:41:48;;;;;;;1.52;1.02;;;29.70;43.50;;;;;;5128366;27;45357;-75
2023/09/02 12:44:16;;;;;;;1.35;1.05;;;29.70;42.90;;;;;;5127988;27;45426;-75
2023/09/02 12:46:44;;;;;;;1.55;1.30;;;29.80;44.00;;;;;;5131311;27;45314;-74
2023/09/02 12:49:11;;;;;;;2.15;1.17;;;29.80;43.50;;;;;;5129912;27;45495;-73